THY4902 LTAI-LTCF
Flight info
| Callsign | THY4902 |
|---|---|
| Flight time | 1h 44m |
| Altitude | 350 |
| Route | TEWHE UR55 MUT UA285 SIV UA4 ERZ UT309 RAHM |
| Aircraft | B738/M-SDE3/K |
Departure
| Time | 2026-05-05 08:37 |
|---|---|
| Airport | Antalya International Airport (LTAI) |
Arrival
| Time | 2026-05-05 10:21 |
|---|---|
| Airport | Kars Airport (LTCF) |
| Time | Latitude | Longitude | Altitude | Speed | Heading |
|---|---|---|---|---|---|
| 2026-05-05 08:11 | 36.89689 | 30.80042 | 177 ft | 0 kts | 34° |
| 2026-05-05 08:24 | 36.89679 | 30.80034 | 177 ft | 2 kts | 32° |
| 2026-05-05 08:24 | 36.89668 | 30.80025 | 177 ft | 0 kts | 35° |
| 2026-05-05 08:24 | 36.89659 | 30.80018 | 177 ft | 2 kts | 16° |
| 2026-05-05 08:25 | 36.89644 | 30.80016 | 177 ft | 2 kts | 347° |
| 2026-05-05 08:25 | 36.89630 | 30.80024 | 177 ft | 2 kts | 320° |
| 2026-05-05 08:25 | 36.89621 | 30.80038 | 178 ft | 2 kts | 292° |
| 2026-05-05 08:25 | 36.89619 | 30.80048 | 178 ft | 1 kts | 277° |
| 2026-05-05 08:26 | 36.89621 | 30.80033 | 177 ft | 5 kts | 278° |
| 2026-05-05 08:26 | 36.89624 | 30.80008 | 177 ft | 0 kts | 277° |
| 2026-05-05 08:28 | 36.89624 | 30.80004 | 177 ft | 1 kts | 278° |
| 2026-05-05 08:28 | 36.89626 | 30.79986 | 177 ft | 2 kts | 278° |
| 2026-05-05 08:29 | 36.89628 | 30.79964 | 177 ft | 2 kts | 278° |
| 2026-05-05 08:29 | 36.89632 | 30.79933 | 177 ft | 5 kts | 278° |
| 2026-05-05 08:29 | 36.89640 | 30.79871 | 177 ft | 9 kts | 277° |
| 2026-05-05 08:30 | 36.89655 | 30.79693 | 177 ft | 9 kts | 274° |
| 2026-05-05 08:30 | 36.89659 | 30.79618 | 177 ft | 7 kts | 275° |
| 2026-05-05 08:30 | 36.89663 | 30.79556 | 177 ft | 6 kts | 275° |
| 2026-05-05 08:30 | 36.89667 | 30.79504 | 177 ft | 5 kts | 276° |
| 2026-05-05 08:31 | 36.89668 | 30.79464 | 177 ft | 3 kts | 265° |
| 2026-05-05 08:31 | 36.89657 | 30.79438 | 177 ft | 3 kts | 221° |
| 2026-05-05 08:31 | 36.89635 | 30.79429 | 177 ft | 3 kts | 189° |
| 2026-05-05 08:31 | 36.89604 | 30.79424 | 177 ft | 7 kts | 187° |
| 2026-05-05 08:32 | 36.89507 | 30.79410 | 177 ft | 20 kts | 186° |
| 2026-05-05 08:32 | 36.89339 | 30.79386 | 177 ft | 24 kts | 186° |
| 2026-05-05 08:32 | 36.89176 | 30.79364 | 177 ft | 23 kts | 186° |
| 2026-05-05 08:32 | 36.89020 | 30.79346 | 177 ft | 21 kts | 184° |
| 2026-05-05 08:33 | 36.88903 | 30.79330 | 177 ft | 15 kts | 187° |
| 2026-05-05 08:33 | 36.88798 | 30.79315 | 177 ft | 14 kts | 186° |
| 2026-05-05 08:33 | 36.88704 | 30.79302 | 177 ft | 12 kts | 186° |
| 2026-05-05 08:33 | 36.88620 | 30.79291 | 177 ft | 11 kts | 186° |
| 2026-05-05 08:34 | 36.88554 | 30.79282 | 177 ft | 5 kts | 188° |
| 2026-05-05 08:34 | 36.88520 | 30.79263 | 177 ft | 4 kts | 220° |
| 2026-05-05 08:34 | 36.88509 | 30.79231 | 177 ft | 3 kts | 272° |
| 2026-05-05 08:34 | 36.88512 | 30.79202 | 177 ft | 3 kts | 276° |
| 2026-05-05 08:35 | 36.88514 | 30.79176 | 177 ft | 3 kts | 276° |
| 2026-05-05 08:35 | 36.88517 | 30.79142 | 177 ft | 3 kts | 276° |
| 2026-05-05 08:35 | 36.88520 | 30.79112 | 177 ft | 3 kts | 277° |
| 2026-05-05 08:35 | 36.88523 | 30.79085 | 177 ft | 2 kts | 287° |
| 2026-05-05 08:36 | 36.88536 | 30.79071 | 177 ft | 2 kts | 344° |
| 2026-05-05 08:36 | 36.88555 | 30.79069 | 177 ft | 2 kts | 360° |
| 2026-05-05 08:36 | 36.88574 | 30.79068 | 177 ft | 2 kts | 358° |
| 2026-05-05 08:36 | 36.88599 | 30.79071 | 177 ft | 8 kts | 7° |
| 2026-05-05 08:37 | 36.88817 | 30.79104 | 177 ft | 57 kts | 2° |
| 2026-05-05 08:37 | 36.89475 | 30.79184 | 177 ft | 133 kts | 8° |
| 2026-05-05 08:37 | 36.90566 | 30.79461 | 417 ft | 178 kts | 10° |
| 2026-05-05 08:37 | 36.91770 | 30.79837 | 1361 ft | 184 kts | 11° |
| 2026-05-05 08:38 | 36.92951 | 30.80215 | 2536 ft | 178 kts | 12° |
| 2026-05-05 08:38 | 36.94202 | 30.80645 | 3225 ft | 200 kts | 13° |
| 2026-05-05 08:38 | 36.95669 | 30.81127 | 3408 ft | 250 kts | 13° |
| 2026-05-05 08:38 | 36.97650 | 30.81781 | 1716 ft | 357 kts | 16° |
| 2026-05-05 08:39 | 37.00058 | 30.82895 | 2739 ft | 368 kts | 20° |
| 2026-05-05 08:39 | 37.02317 | 30.84084 | 4533 ft | 354 kts | 24° |
| 2026-05-05 08:39 | 37.04450 | 30.85625 | 5865 ft | 358 kts | 36° |
| 2026-05-05 08:39 | 37.06220 | 30.87731 | 7120 ft | 363 kts | 50° |
| 2026-05-05 08:40 | 37.07635 | 30.90384 | 7898 ft | 380 kts | 60° |
| 2026-05-05 08:40 | 37.08725 | 30.93398 | 9031 ft | 379 kts | 66° |
| 2026-05-05 08:40 | 37.09454 | 30.96471 | 10373 ft | 372 kts | 77° |
| 2026-05-05 08:40 | 37.09660 | 30.99661 | 11175 ft | 377 kts | 88° |
| 2026-05-05 08:41 | 37.09212 | 31.02999 | 10952 ft | 403 kts | 108° |
| 2026-05-05 08:41 | 37.07802 | 31.06140 | 10530 ft | 430 kts | 123° |
| 2026-05-05 08:41 | 37.05918 | 31.09121 | 10106 ft | 450 kts | 127° |
| 2026-05-05 08:41 | 37.03895 | 31.12075 | 9662 ft | 439 kts | 128° |
| 2026-05-05 08:42 | 37.01953 | 31.14900 | 9232 ft | 419 kts | 127° |
| 2026-05-05 08:42 | 37.00228 | 31.17745 | 8805 ft | 400 kts | 121° |
| 2026-05-05 08:42 | 36.98820 | 31.20640 | 8386 ft | 389 kts | 116° |
| 2026-05-05 08:42 | 36.97614 | 31.23747 | 8119 ft | 398 kts | 109° |
| 2026-05-05 08:43 | 36.96750 | 31.26950 | 8656 ft | 384 kts | 103° |
| 2026-05-05 08:43 | 36.96156 | 31.30132 | 9186 ft | 372 kts | 97° |
| 2026-05-05 08:43 | 36.95792 | 31.33279 | 10077 ft | 369 kts | 92° |
| 2026-05-05 08:43 | 36.95557 | 31.36408 | 11234 ft | 361 kts | 91° |
| 2026-05-05 08:44 | 36.95347 | 31.39503 | 12210 ft | 360 kts | 91° |
| 2026-05-05 08:44 | 36.95117 | 31.42626 | 12899 ft | 367 kts | 91° |
| 2026-05-05 08:44 | 36.94852 | 31.45800 | 13719 ft | 372 kts | 91° |
| 2026-05-05 08:44 | 36.94561 | 31.49011 | 14532 ft | 376 kts | 91° |
| 2026-05-05 08:45 | 36.94262 | 31.52262 | 15121 ft | 383 kts | 91° |
| 2026-05-05 08:45 | 36.93956 | 31.55568 | 15796 ft | 387 kts | 91° |
| 2026-05-05 08:45 | 36.93644 | 31.58934 | 16500 ft | 390 kts | 91° |
| 2026-05-05 08:45 | 36.93329 | 31.62320 | 17095 ft | 396 kts | 91° |
| 2026-05-05 08:46 | 36.93009 | 31.65691 | 17853 ft | 398 kts | 92° |
| 2026-05-05 08:46 | 36.92679 | 31.69146 | 18491 ft | 403 kts | 91° |
| 2026-05-05 08:46 | 36.92348 | 31.72629 | 19046 ft | 408 kts | 91° |
| 2026-05-05 08:46 | 36.92018 | 31.76139 | 19652 ft | 411 kts | 90° |
| 2026-05-05 08:47 | 36.91685 | 31.79701 | 20188 ft | 416 kts | 90° |
| 2026-05-05 08:47 | 36.91346 | 31.83303 | 20770 ft | 420 kts | 90° |
| 2026-05-05 08:47 | 36.91002 | 31.86951 | 21232 ft | 426 kts | 90° |
| 2026-05-05 08:47 | 36.90654 | 31.90621 | 21766 ft | 430 kts | 89° |
| 2026-05-05 08:48 | 36.90300 | 31.94318 | 22337 ft | 432 kts | 89° |
| 2026-05-05 08:48 | 36.89993 | 31.98057 | 22836 ft | 433 kts | 86° |
| 2026-05-05 08:48 | 36.89814 | 32.01808 | 23284 ft | 436 kts | 84° |
| 2026-05-05 08:48 | 36.89716 | 32.05604 | 23796 ft | 437 kts | 83° |
| 2026-05-05 08:49 | 36.89651 | 32.09348 | 24237 ft | 441 kts | 83° |
| 2026-05-05 08:49 | 36.89592 | 32.13194 | 24647 ft | 446 kts | 83° |
| 2026-05-05 08:49 | 36.89526 | 32.17099 | 25181 ft | 447 kts | 83° |
| 2026-05-05 08:49 | 36.89454 | 32.20974 | 25513 ft | 452 kts | 83° |
| 2026-05-05 08:50 | 36.89373 | 32.24901 | 25990 ft | 454 kts | 83° |
| 2026-05-05 08:50 | 36.89282 | 32.28804 | 26416 ft | 457 kts | 83° |
| 2026-05-05 08:50 | 36.89186 | 32.32833 | 26665 ft | 464 kts | 84° |
| 2026-05-05 08:50 | 36.89084 | 32.36865 | 27029 ft | 467 kts | 84° |
| 2026-05-05 08:51 | 36.88976 | 32.40919 | 27528 ft | 467 kts | 84° |
| 2026-05-05 08:51 | 36.88863 | 32.44976 | 27830 ft | 471 kts | 84° |
| 2026-05-05 08:51 | 36.88751 | 32.49100 | 28102 ft | 475 kts | 84° |
| 2026-05-05 08:51 | 36.88637 | 32.53223 | 28438 ft | 478 kts | 84° |
| 2026-05-05 08:52 | 36.88523 | 32.57363 | 28705 ft | 481 kts | 84° |
| 2026-05-05 08:52 | 36.88408 | 32.61486 | 29073 ft | 482 kts | 85° |
| 2026-05-05 08:52 | 36.88287 | 32.65709 | 29469 ft | 483 kts | 85° |
| 2026-05-05 08:52 | 36.88166 | 32.69873 | 29955 ft | 480 kts | 85° |
| 2026-05-05 08:53 | 36.88043 | 32.74031 | 30230 ft | 482 kts | 85° |
| 2026-05-05 08:53 | 36.87920 | 32.78171 | 30565 ft | 483 kts | 85° |
| 2026-05-05 08:53 | 36.87795 | 32.82337 | 30922 ft | 483 kts | 86° |
| 2026-05-05 08:53 | 36.87666 | 32.86538 | 31289 ft | 482 kts | 86° |
| 2026-05-05 08:54 | 36.87538 | 32.90702 | 31662 ft | 481 kts | 87° |
| 2026-05-05 08:54 | 36.87409 | 32.94859 | 31973 ft | 482 kts | 88° |
| 2026-05-05 08:54 | 36.87281 | 32.99001 | 32227 ft | 483 kts | 87° |
| 2026-05-05 08:54 | 36.87150 | 33.03168 | 32556 ft | 483 kts | 88° |
| 2026-05-05 08:55 | 36.87017 | 33.07384 | 32896 ft | 483 kts | 88° |
| 2026-05-05 08:55 | 36.86885 | 33.11535 | 33215 ft | 483 kts | 88° |
| 2026-05-05 08:55 | 36.86751 | 33.15701 | 33499 ft | 483 kts | 89° |
| 2026-05-05 08:55 | 36.86698 | 33.19866 | 33752 ft | 482 kts | 84° |
| 2026-05-05 08:56 | 36.86943 | 33.24040 | 33998 ft | 480 kts | 78° |
| 2026-05-05 08:56 | 36.87520 | 33.28088 | 34284 ft | 477 kts | 72° |
| 2026-05-05 08:56 | 36.88434 | 33.32063 | 34574 ft | 474 kts | 66° |
| 2026-05-05 08:56 | 36.89666 | 33.35867 | 34818 ft | 472 kts | 60° |
| 2026-05-05 08:57 | 36.91184 | 33.39414 | 35167 ft | 466 kts | 54° |
| 2026-05-05 08:57 | 36.92997 | 33.42752 | 35471 ft | 462 kts | 48° |
| 2026-05-05 08:57 | 36.95085 | 33.45827 | 35737 ft | 459 kts | 42° |
| 2026-05-05 08:57 | 36.97363 | 33.48535 | 35965 ft | 457 kts | 36° |
| 2026-05-05 08:58 | 36.99903 | 33.50960 | 36197 ft | 455 kts | 30° |
| 2026-05-05 08:58 | 37.02587 | 33.52998 | 36437 ft | 453 kts | 25° |
| 2026-05-05 08:58 | 37.05357 | 33.54834 | 36683 ft | 453 kts | 24° |
| 2026-05-05 08:58 | 37.08117 | 33.56727 | 36872 ft | 456 kts | 26° |
| 2026-05-05 08:59 | 37.10828 | 33.58825 | 36957 ft | 460 kts | 30° |
| 2026-05-05 08:59 | 37.15984 | 33.63628 | 36975 ft | 461 kts | 36° |
| 2026-05-05 09:00 | 37.20836 | 33.68877 | 36968 ft | 461 kts | 39° |
| 2026-05-05 09:00 | 37.25588 | 33.74313 | 36983 ft | 464 kts | 40° |
| 2026-05-05 09:01 | 37.30303 | 33.79793 | 36978 ft | 464 kts | 40° |
| 2026-05-05 09:01 | 37.35044 | 33.85332 | 36979 ft | 471 kts | 40° |
| 2026-05-05 09:02 | 37.39902 | 33.91000 | 36976 ft | 485 kts | 40° |
| 2026-05-05 09:02 | 37.44917 | 33.96838 | 36983 ft | 492 kts | 40° |
| 2026-05-05 09:02 | 37.47394 | 33.99735 | 36982 ft | 476 kts | 40° |
| 2026-05-05 09:03 | 37.49750 | 34.02499 | 36981 ft | 462 kts | 40° |
| 2026-05-05 09:03 | 37.54432 | 34.07996 | 36983 ft | 461 kts | 40° |
| 2026-05-05 09:04 | 37.59141 | 34.13523 | 36979 ft | 467 kts | 40° |
| 2026-05-05 09:04 | 37.63862 | 34.19080 | 36974 ft | 465 kts | 40° |
| 2026-05-05 09:05 | 37.68618 | 34.24690 | 36979 ft | 467 kts | 41° |
| 2026-05-05 09:05 | 37.73338 | 34.30271 | 36982 ft | 465 kts | 41° |
| 2026-05-05 09:06 | 37.78052 | 34.35855 | 36989 ft | 466 kts | 40° |
| 2026-05-05 09:06 | 37.82751 | 34.41443 | 36976 ft | 470 kts | 41° |
| 2026-05-05 09:07 | 37.87527 | 34.47166 | 36951 ft | 476 kts | 41° |
| 2026-05-05 09:07 | 37.92355 | 34.52957 | 36918 ft | 483 kts | 41° |
| 2026-05-05 09:08 | 37.97266 | 34.58830 | 36902 ft | 488 kts | 41° |
| 2026-05-05 09:08 | 38.02253 | 34.64754 | 36915 ft | 495 kts | 41° |
| 2026-05-05 09:08 | 38.04723 | 34.67674 | 36924 ft | 482 kts | 41° |
| 2026-05-05 09:09 | 38.07116 | 34.70509 | 36922 ft | 466 kts | 41° |
| 2026-05-05 09:09 | 38.11792 | 34.76071 | 36959 ft | 460 kts | 41° |
| 2026-05-05 09:10 | 38.16484 | 34.81673 | 36956 ft | 467 kts | 42° |
| 2026-05-05 09:10 | 38.21192 | 34.87320 | 36959 ft | 466 kts | 42° |
| 2026-05-05 09:11 | 38.25888 | 34.92969 | 36953 ft | 466 kts | 42° |
| 2026-05-05 09:11 | 38.30598 | 34.98629 | 36952 ft | 469 kts | 41° |
| 2026-05-05 09:12 | 38.35380 | 35.04314 | 36953 ft | 476 kts | 41° |
| 2026-05-05 09:12 | 38.40310 | 35.10063 | 36959 ft | 488 kts | 40° |
| 2026-05-05 09:13 | 38.45539 | 35.15714 | 36956 ft | 499 kts | 38° |
| 2026-05-05 09:13 | 38.50894 | 35.21378 | 36962 ft | 498 kts | 38° |
| 2026-05-05 09:13 | 38.53469 | 35.24141 | 36962 ft | 480 kts | 40° |
| 2026-05-05 09:14 | 38.55912 | 35.26989 | 36962 ft | 465 kts | 43° |
| 2026-05-05 09:14 | 38.60438 | 35.32747 | 36967 ft | 462 kts | 44° |
| 2026-05-05 09:15 | 38.64948 | 35.38643 | 36973 ft | 469 kts | 44° |
| 2026-05-05 09:15 | 38.69524 | 35.44604 | 36979 ft | 467 kts | 44° |
| 2026-05-05 09:16 | 38.74059 | 35.50471 | 36985 ft | 467 kts | 44° |
| 2026-05-05 09:16 | 38.78655 | 35.56393 | 36981 ft | 467 kts | 44° |
| 2026-05-05 09:17 | 38.83210 | 35.62259 | 36974 ft | 466 kts | 44° |
| 2026-05-05 09:17 | 38.87764 | 35.68131 | 36969 ft | 465 kts | 45° |
| 2026-05-05 09:18 | 38.92372 | 35.74054 | 36953 ft | 472 kts | 45° |
| 2026-05-05 09:18 | 38.97092 | 35.80060 | 36947 ft | 483 kts | 44° |
| 2026-05-05 09:19 | 39.01960 | 35.86132 | 36943 ft | 496 kts | 44° |
| 2026-05-05 09:19 | 39.06947 | 35.92325 | 36933 ft | 504 kts | 44° |
| 2026-05-05 09:20 | 39.12024 | 35.98640 | 36940 ft | 508 kts | 44° |
| 2026-05-05 09:20 | 39.17005 | 36.04886 | 36946 ft | 490 kts | 45° |
| 2026-05-05 09:20 | 39.19368 | 36.07975 | 36940 ft | 473 kts | 46° |
| 2026-05-05 09:21 | 39.21594 | 36.10961 | 36945 ft | 461 kts | 46° |
| 2026-05-05 09:21 | 39.26009 | 36.16966 | 36948 ft | 466 kts | 46° |
| 2026-05-05 09:22 | 39.30468 | 36.23045 | 36941 ft | 468 kts | 46° |
| 2026-05-05 09:22 | 39.34927 | 36.29105 | 36938 ft | 467 kts | 46° |
| 2026-05-05 09:23 | 39.39417 | 36.35200 | 36933 ft | 468 kts | 46° |
| 2026-05-05 09:23 | 39.43901 | 36.41288 | 36929 ft | 468 kts | 46° |
| 2026-05-05 09:24 | 39.48372 | 36.47366 | 36923 ft | 468 kts | 46° |
| 2026-05-05 09:24 | 39.52852 | 36.53466 | 36925 ft | 467 kts | 46° |
| 2026-05-05 09:25 | 39.57322 | 36.59575 | 36933 ft | 468 kts | 46° |
| 2026-05-05 09:25 | 39.61775 | 36.65676 | 36943 ft | 469 kts | 47° |
| 2026-05-05 09:26 | 39.66259 | 36.71864 | 36947 ft | 478 kts | 47° |
| 2026-05-05 09:26 | 39.70831 | 36.78185 | 36947 ft | 486 kts | 47° |
| 2026-05-05 09:27 | 39.75442 | 36.84707 | 36944 ft | 493 kts | 51° |
| 2026-05-05 09:27 | 39.78854 | 36.92205 | 36937 ft | 472 kts | 74° |
| 2026-05-05 09:27 | 39.79567 | 36.96267 | 36943 ft | 459 kts | 82° |
| 2026-05-05 09:28 | 39.80005 | 37.00354 | 36942 ft | 460 kts | 84° |
| 2026-05-05 09:28 | 39.80684 | 37.08717 | 36940 ft | 469 kts | 85° |
| 2026-05-05 09:29 | 39.81327 | 37.17222 | 36939 ft | 479 kts | 85° |
| 2026-05-05 09:29 | 39.81988 | 37.25858 | 36942 ft | 488 kts | 85° |
| 2026-05-05 09:30 | 39.82677 | 37.34707 | 36938 ft | 496 kts | 85° |
| 2026-05-05 09:30 | 39.83365 | 37.43570 | 36929 ft | 487 kts | 85° |
| 2026-05-05 09:30 | 39.83692 | 37.47877 | 36926 ft | 470 kts | 85° |
| 2026-05-05 09:31 | 39.84006 | 37.52050 | 36928 ft | 460 kts | 85° |
| 2026-05-05 09:31 | 39.84622 | 37.60345 | 36935 ft | 467 kts | 85° |
| 2026-05-05 09:32 | 39.85241 | 37.68702 | 36936 ft | 467 kts | 86° |
| 2026-05-05 09:32 | 39.85863 | 37.77083 | 36940 ft | 466 kts | 86° |
| 2026-05-05 09:33 | 39.86484 | 37.85499 | 36937 ft | 466 kts | 86° |
| 2026-05-05 09:33 | 39.87091 | 37.93856 | 36931 ft | 470 kts | 86° |
| 2026-05-05 09:34 | 39.87684 | 38.02374 | 36917 ft | 479 kts | 86° |
| 2026-05-05 09:34 | 39.88288 | 38.11061 | 36921 ft | 488 kts | 86° |
| 2026-05-05 09:35 | 39.88912 | 38.19914 | 36924 ft | 496 kts | 86° |
| 2026-05-05 09:35 | 39.89563 | 38.28685 | 36936 ft | 474 kts | 86° |
| 2026-05-05 09:35 | 39.89880 | 38.32891 | 36934 ft | 461 kts | 86° |
| 2026-05-05 09:36 | 39.90480 | 38.41165 | 36936 ft | 467 kts | 86° |
| 2026-05-05 09:36 | 39.91074 | 38.49652 | 36937 ft | 468 kts | 86° |
| 2026-05-05 09:37 | 39.91654 | 38.58024 | 36945 ft | 467 kts | 86° |
| 2026-05-05 09:37 | 39.92226 | 38.66402 | 36947 ft | 467 kts | 88° |
| 2026-05-05 09:38 | 39.92794 | 38.74805 | 36937 ft | 468 kts | 88° |
| 2026-05-05 09:38 | 39.93357 | 38.83246 | 36949 ft | 468 kts | 88° |
| 2026-05-05 09:39 | 39.93881 | 38.91681 | 36956 ft | 467 kts | 90° |
| 2026-05-05 09:39 | 39.94069 | 39.00121 | 36942 ft | 470 kts | 92° |
| 2026-05-05 09:40 | 39.94122 | 39.08604 | 36932 ft | 466 kts | 92° |
| 2026-05-05 09:40 | 39.94202 | 39.17007 | 36918 ft | 466 kts | 92° |
| 2026-05-05 09:41 | 39.94310 | 39.25496 | 36919 ft | 469 kts | 91° |
| 2026-05-05 09:41 | 39.94453 | 39.34011 | 36929 ft | 476 kts | 91° |
| 2026-05-05 09:42 | 39.94601 | 39.42694 | 36937 ft | 483 kts | 91° |
| 2026-05-05 09:42 | 39.94718 | 39.51316 | 36944 ft | 470 kts | 92° |
| 2026-05-05 09:43 | 39.94808 | 39.59708 | 36944 ft | 465 kts | 92° |
| 2026-05-05 09:43 | 39.94894 | 39.68200 | 36944 ft | 470 kts | 92° |
| 2026-05-05 09:44 | 39.94981 | 39.76683 | 36938 ft | 469 kts | 92° |
| 2026-05-05 09:44 | 39.95069 | 39.85090 | 36932 ft | 469 kts | 92° |
| 2026-05-05 09:45 | 39.95161 | 39.93615 | 36923 ft | 474 kts | 92° |
| 2026-05-05 09:45 | 39.95270 | 40.02211 | 36925 ft | 480 kts | 92° |
| 2026-05-05 09:46 | 39.95367 | 40.10956 | 36926 ft | 486 kts | 92° |
| 2026-05-05 09:46 | 39.95446 | 40.19753 | 36931 ft | 492 kts | 92° |
| 2026-05-05 09:47 | 39.95513 | 40.28716 | 36938 ft | 496 kts | 92° |
| 2026-05-05 09:47 | 39.95557 | 40.37614 | 36936 ft | 478 kts | 92° |
| 2026-05-05 09:48 | 39.95570 | 40.41850 | 36938 ft | 465 kts | 92° |
| 2026-05-05 09:48 | 39.95580 | 40.46031 | 36951 ft | 464 kts | 92° |
| 2026-05-05 09:48 | 39.95591 | 40.54521 | 36951 ft | 472 kts | 92° |
| 2026-05-05 09:49 | 39.95607 | 40.63004 | 36957 ft | 470 kts | 93° |
| 2026-05-05 09:49 | 39.95615 | 40.71484 | 36960 ft | 477 kts | 93° |
| 2026-05-05 09:50 | 39.95638 | 40.79998 | 36965 ft | 466 kts | 93° |
| 2026-05-05 09:50 | 39.95658 | 40.88431 | 36969 ft | 469 kts | 93° |
| 2026-05-05 09:51 | 39.95669 | 40.96896 | 36969 ft | 470 kts | 94° |
| 2026-05-05 09:51 | 39.95674 | 41.05362 | 36965 ft | 468 kts | 93° |
| 2026-05-05 09:52 | 39.95676 | 41.13803 | 36964 ft | 470 kts | 92° |
| 2026-05-05 09:52 | 39.95821 | 41.18032 | 36770 ft | 469 kts | 88° |
| 2026-05-05 09:52 | 39.96352 | 41.22256 | 36339 ft | 470 kts | 78° |
| 2026-05-05 09:53 | 39.97313 | 41.26308 | 35743 ft | 475 kts | 72° |
| 2026-05-05 09:53 | 39.98515 | 41.30331 | 35036 ft | 480 kts | 70° |
| 2026-05-05 09:53 | 39.99820 | 41.34284 | 34285 ft | 486 kts | 68° |
| 2026-05-05 09:53 | 40.01202 | 41.38314 | 33529 ft | 491 kts | 68° |
| 2026-05-05 09:54 | 40.02606 | 41.42381 | 33011 ft | 489 kts | 68° |
| 2026-05-05 09:54 | 40.03974 | 41.46366 | 32845 ft | 478 kts | 68° |
| 2026-05-05 09:54 | 40.05315 | 41.50321 | 32437 ft | 474 kts | 69° |
| 2026-05-05 09:54 | 40.06614 | 41.54210 | 31972 ft | 469 kts | 69° |
| 2026-05-05 09:55 | 40.07901 | 41.58098 | 31522 ft | 465 kts | 69° |
| 2026-05-05 09:55 | 40.09166 | 41.61945 | 31069 ft | 461 kts | 69° |
| 2026-05-05 09:55 | 40.10405 | 41.65739 | 30622 ft | 457 kts | 70° |
| 2026-05-05 09:55 | 40.11641 | 41.69541 | 30142 ft | 452 kts | 70° |
| 2026-05-05 09:56 | 40.12868 | 41.73333 | 29584 ft | 448 kts | 70° |
| 2026-05-05 09:56 | 40.14059 | 41.77035 | 29049 ft | 445 kts | 70° |
| 2026-05-05 09:56 | 40.15243 | 41.80735 | 28585 ft | 439 kts | 70° |
| 2026-05-05 09:56 | 40.16408 | 41.84382 | 28028 ft | 436 kts | 70° |
| 2026-05-05 09:57 | 40.17571 | 41.88032 | 27501 ft | 432 kts | 70° |
| 2026-05-05 09:57 | 40.18717 | 41.91627 | 27030 ft | 427 kts | 70° |
| 2026-05-05 09:57 | 40.19839 | 41.95154 | 26460 ft | 425 kts | 70° |
| 2026-05-05 09:57 | 40.20977 | 41.98735 | 25896 ft | 422 kts | 70° |
| 2026-05-05 09:58 | 40.22084 | 42.02202 | 25451 ft | 416 kts | 70° |
| 2026-05-05 09:58 | 40.23184 | 42.05656 | 24983 ft | 411 kts | 70° |
| 2026-05-05 09:58 | 40.24284 | 42.09118 | 24378 ft | 409 kts | 70° |
| 2026-05-05 09:58 | 40.25361 | 42.12518 | 23868 ft | 404 kts | 70° |
| 2026-05-05 09:59 | 40.26414 | 42.15854 | 23356 ft | 400 kts | 69° |
| 2026-05-05 09:59 | 40.27473 | 42.19208 | 22786 ft | 397 kts | 70° |
| 2026-05-05 09:59 | 40.28515 | 42.22516 | 22276 ft | 392 kts | 70° |
| 2026-05-05 09:59 | 40.29552 | 42.25808 | 21763 ft | 388 kts | 70° |
| 2026-05-05 10:00 | 40.30568 | 42.29050 | 21248 ft | 384 kts | 70° |
| 2026-05-05 10:00 | 40.31566 | 42.32235 | 20712 ft | 381 kts | 70° |
| 2026-05-05 10:00 | 40.32576 | 42.35454 | 20175 ft | 378 kts | 70° |
| 2026-05-05 10:00 | 40.33559 | 42.38586 | 19650 ft | 375 kts | 69° |
| 2026-05-05 10:01 | 40.34556 | 42.41752 | 19147 ft | 371 kts | 69° |
| 2026-05-05 10:01 | 40.35520 | 42.44824 | 18642 ft | 368 kts | 70° |
| 2026-05-05 10:01 | 40.36488 | 42.47918 | 18111 ft | 366 kts | 70° |
| 2026-05-05 10:01 | 40.37449 | 42.51000 | 17631 ft | 362 kts | 70° |
| 2026-05-05 10:02 | 40.38312 | 42.54039 | 17131 ft | 357 kts | 73° |
| 2026-05-05 10:02 | 40.39080 | 42.57136 | 16593 ft | 355 kts | 75° |
| 2026-05-05 10:02 | 40.39796 | 42.60188 | 16075 ft | 349 kts | 75° |
| 2026-05-05 10:02 | 40.40487 | 42.63147 | 15899 ft | 335 kts | 75° |
| 2026-05-05 10:03 | 40.41165 | 42.66022 | 15762 ft | 322 kts | 75° |
| 2026-05-05 10:03 | 40.41806 | 42.68736 | 15639 ft | 310 kts | 76° |
| 2026-05-05 10:03 | 40.42433 | 42.71421 | 15522 ft | 299 kts | 76° |
| 2026-05-05 10:03 | 40.43028 | 42.73955 | 15420 ft | 288 kts | 76° |
| 2026-05-05 10:04 | 40.43617 | 42.76417 | 15323 ft | 278 kts | 75° |
| 2026-05-05 10:04 | 40.44244 | 42.78754 | 15211 ft | 269 kts | 70° |
| 2026-05-05 10:04 | 40.45011 | 42.80962 | 14996 ft | 266 kts | 66° |
| 2026-05-05 10:04 | 40.45846 | 42.83140 | 14642 ft | 268 kts | 66° |
| 2026-05-05 10:05 | 40.46686 | 42.85352 | 14138 ft | 275 kts | 67° |
| 2026-05-05 10:05 | 40.47520 | 42.87622 | 13670 ft | 279 kts | 65° |
| 2026-05-05 10:05 | 40.48553 | 42.89771 | 13096 ft | 286 kts | 57° |
| 2026-05-05 10:05 | 40.49710 | 42.91958 | 12369 ft | 295 kts | 60° |
| 2026-05-05 10:06 | 40.50695 | 42.94240 | 12238 ft | 281 kts | 65° |
| 2026-05-05 10:06 | 40.51581 | 42.96453 | 12133 ft | 269 kts | 57° |
| 2026-05-05 10:06 | 40.52914 | 42.98091 | 12039 ft | 260 kts | 29° |
| 2026-05-05 10:06 | 40.54630 | 42.98677 | 11937 ft | 251 kts | 357° |
| 2026-05-05 10:07 | 40.56274 | 42.98228 | 11919 ft | 235 kts | 340° |
| 2026-05-05 10:07 | 40.57777 | 42.97510 | 11850 ft | 226 kts | 338° |
| 2026-05-05 10:07 | 40.59253 | 42.96791 | 11627 ft | 226 kts | 339° |
| 2026-05-05 10:07 | 40.60721 | 42.96081 | 11402 ft | 226 kts | 339° |
| 2026-05-05 10:08 | 40.62210 | 42.95360 | 11155 ft | 227 kts | 338° |
| 2026-05-05 10:08 | 40.63631 | 42.94494 | 10941 ft | 225 kts | 320° |
| 2026-05-05 10:08 | 40.64553 | 42.92941 | 10775 ft | 217 kts | 285° |
| 2026-05-05 10:08 | 40.64652 | 42.91014 | 10582 ft | 209 kts | 253° |
| 2026-05-05 10:09 | 40.64203 | 42.89253 | 10577 ft | 195 kts | 246° |
| 2026-05-05 10:09 | 40.63733 | 42.87600 | 10396 ft | 193 kts | 247° |
| 2026-05-05 10:09 | 40.63268 | 42.85949 | 10202 ft | 193 kts | 246° |
| 2026-05-05 10:09 | 40.62799 | 42.84311 | 10012 ft | 193 kts | 247° |
| 2026-05-05 10:10 | 40.62323 | 42.82647 | 9845 ft | 193 kts | 246° |
| 2026-05-05 10:10 | 40.61855 | 42.81003 | 9694 ft | 192 kts | 247° |
| 2026-05-05 10:10 | 40.61380 | 42.79360 | 9541 ft | 191 kts | 246° |
| 2026-05-05 10:10 | 40.60915 | 42.77736 | 9509 ft | 187 kts | 247° |
| 2026-05-05 10:11 | 40.60456 | 42.76126 | 9512 ft | 190 kts | 247° |
| 2026-05-05 10:11 | 40.59993 | 42.74517 | 9485 ft | 189 kts | 247° |
| 2026-05-05 10:11 | 40.59528 | 42.72905 | 9503 ft | 190 kts | 246° |
| 2026-05-05 10:11 | 40.58915 | 42.71369 | 9499 ft | 188 kts | 223° |
| 2026-05-05 10:12 | 40.57792 | 42.70571 | 9501 ft | 185 kts | 186° |
| 2026-05-05 10:12 | 40.56554 | 42.70838 | 9507 ft | 184 kts | 159° |
| 2026-05-05 10:12 | 40.55312 | 42.71258 | 9501 ft | 185 kts | 182° |
| 2026-05-05 10:12 | 40.54042 | 42.70926 | 9506 ft | 186 kts | 206° |
| 2026-05-05 10:13 | 40.52993 | 42.69944 | 9510 ft | 187 kts | 223° |
| 2026-05-05 10:13 | 40.52177 | 42.68593 | 9512 ft | 189 kts | 234° |
| 2026-05-05 10:13 | 40.51353 | 42.67271 | 9502 ft | 187 kts | 213° |
| 2026-05-05 10:13 | 40.50132 | 42.66773 | 9501 ft | 184 kts | 175° |
| 2026-05-05 10:14 | 40.48978 | 42.67414 | 9498 ft | 187 kts | 136° |
| 2026-05-05 10:14 | 40.48187 | 42.68805 | 9500 ft | 189 kts | 131° |
| 2026-05-05 10:14 | 40.47269 | 42.70017 | 9501 ft | 187 kts | 138° |
| 2026-05-05 10:14 | 40.46580 | 42.71439 | 9495 ft | 192 kts | 105° |
| 2026-05-05 10:15 | 40.46446 | 42.73198 | 9504 ft | 194 kts | 97° |
| 2026-05-05 10:15 | 40.46316 | 42.74947 | 9500 ft | 193 kts | 99° |
| 2026-05-05 10:15 | 40.46158 | 42.76694 | 9505 ft | 192 kts | 99° |
| 2026-05-05 10:15 | 40.45997 | 42.78442 | 9505 ft | 192 kts | 100° |
| 2026-05-05 10:16 | 40.45840 | 42.80168 | 9504 ft | 192 kts | 99° |
| 2026-05-05 10:16 | 40.45757 | 42.81932 | 9505 ft | 195 kts | 86° |
| 2026-05-05 10:16 | 40.46112 | 42.83647 | 9514 ft | 198 kts | 70° |
| 2026-05-05 10:16 | 40.46672 | 42.85303 | 9513 ft | 198 kts | 68° |
| 2026-05-05 10:17 | 40.47255 | 42.86944 | 9516 ft | 197 kts | 68° |
| 2026-05-05 10:17 | 40.47843 | 42.88571 | 9388 ft | 201 kts | 67° |
| 2026-05-05 10:17 | 40.48457 | 42.90253 | 9075 ft | 203 kts | 67° |
| 2026-05-05 10:17 | 40.49066 | 42.91916 | 8794 ft | 202 kts | 67° |
| 2026-05-05 10:18 | 40.49671 | 42.93570 | 8531 ft | 201 kts | 67° |
| 2026-05-05 10:18 | 40.50273 | 42.95226 | 8255 ft | 200 kts | 66° |
| 2026-05-05 10:18 | 40.50869 | 42.96846 | 8007 ft | 196 kts | 67° |
| 2026-05-05 10:18 | 40.51431 | 42.98373 | 7731 ft | 176 kts | 66° |
| 2026-05-05 10:19 | 40.51943 | 42.99770 | 7505 ft | 170 kts | 66° |
| 2026-05-05 10:19 | 40.52446 | 43.01139 | 7283 ft | 166 kts | 67° |
| 2026-05-05 10:19 | 40.52970 | 43.02523 | 7086 ft | 171 kts | 64° |
| 2026-05-05 10:19 | 40.53469 | 43.03919 | 6832 ft | 170 kts | 68° |
| 2026-05-05 10:20 | 40.53963 | 43.05299 | 6605 ft | 169 kts | 64° |
| 2026-05-05 10:20 | 40.54503 | 43.06675 | 6421 ft | 170 kts | 65° |
| 2026-05-05 10:20 | 40.54991 | 43.08110 | 6166 ft | 169 kts | 69° |
| 2026-05-05 10:20 | 40.55483 | 43.09491 | 5965 ft | 166 kts | 69° |
| 2026-05-05 10:21 | 40.55994 | 43.10823 | 5906 ft | 159 kts | 66° |
| 2026-05-05 10:21 | 40.56374 | 43.11947 | 5906 ft | 107 kts | 65° |
| 2026-05-05 10:21 | 40.56635 | 43.12627 | 5905 ft | 68 kts | 70° |
| 2026-05-05 10:21 | 40.56745 | 43.12904 | 5900 ft | 10 kts | 71° |
| 2026-05-05 10:22 | 40.56762 | 43.12985 | 5900 ft | 8 kts | 73° |
| 2026-05-05 10:22 | 40.56777 | 43.13052 | 5900 ft | 7 kts | 73° |
| 2026-05-05 10:22 | 40.56790 | 43.13057 | 5900 ft | 4 kts | 282° |
| 2026-05-05 10:22 | 40.56784 | 43.13015 | 5900 ft | 7 kts | 249° |
| 2026-05-05 10:23 | 40.56751 | 43.12935 | 5901 ft | 12 kts | 240° |
| 2026-05-05 10:23 | 40.56709 | 43.12813 | 5904 ft | 15 kts | 252° |
| 2026-05-05 10:23 | 40.56662 | 43.12661 | 5904 ft | 20 kts | 250° |
| 2026-05-05 10:23 | 40.56594 | 43.12488 | 5907 ft | 23 kts | 243° |
| 2026-05-05 10:24 | 40.56516 | 43.12276 | 5907 ft | 28 kts | 243° |
| 2026-05-05 10:24 | 40.56443 | 43.12089 | 5907 ft | 21 kts | 245° |
| 2026-05-05 10:24 | 40.56380 | 43.11906 | 5907 ft | 21 kts | 244° |
| 2026-05-05 10:24 | 40.56319 | 43.11741 | 5907 ft | 19 kts | 243° |
| 2026-05-05 10:25 | 40.56265 | 43.11599 | 5909 ft | 15 kts | 246° |
| 2026-05-05 10:25 | 40.56238 | 43.11512 | 5910 ft | 0 kts | 262° |
| 2026-05-05 10:25 | 40.56237 | 43.11506 | 5910 ft | 2 kts | 266° |
| 2026-05-05 10:25 | 40.56235 | 43.11461 | 5910 ft | 7 kts | 265° |
| 2026-05-05 10:26 | 40.56268 | 43.11414 | 5910 ft | 9 kts | 336° |
| 2026-05-05 10:26 | 40.56343 | 43.11376 | 5910 ft | 13 kts | 337° |
| 2026-05-05 10:26 | 40.56436 | 43.11319 | 5908 ft | 10 kts | 333° |
| 2026-05-05 10:26 | 40.56477 | 43.11285 | 5907 ft | 6 kts | 316° |
| 2026-05-05 10:27 | 40.56520 | 43.11242 | 5906 ft | 8 kts | 340° |
| 2026-05-05 10:27 | 40.56557 | 43.11225 | 5906 ft | 0 kts | 334° |